Sahalee, WA

10:02 PM PST on December 07, 2016 (GMT -0800)
Timberline | | Change Station
Active Advisory: Winter Weather Advisory

Elev 449 ft 47.65 °N, 122.06 °W | Updated 2 minutes ago

Clear
Clear
25.2 °F
Feels Like 25 °F
N
0.0
Wind Variable Wind from East
Gusts 0.0 mph

Today
High -- | Low -- °F
--% Chance of Precip.
Yesterday
High -- | Low -- °F
Precip. -- in
Pressure 30.33 in
Visibility 10.0 miles
Clouds Clear
Windchill 25 °F
Dew Point 17 °F
Humidity 70%
Rainfall 0.00 in
Snow Depth Not available.
7:43 AM 4:16 PM
First Quarter, 60% visible
METAR KRNT 080553Z AUTO VRB05KT 10SM CLR 01/M10 A3032 RMK AO2 SLP270 T00111100 10028 21006 56010
Pressure 30.33 in
Visibility 10.0 miles
Clouds Clear
Windchill 25 °F
Dew Point 17 °F
Humidity 70%
Rainfall 0.00 in
Snow Depth Not available.
7:43 AM 4:16 PM
First Quarter, 60% visible
METAR KRNT 080553Z AUTO VRB05KT 10SM CLR 01/M10 A3032 RMK AO2 SLP270 T00111100 10028 21006 56010

10-Day Weather Forecast

Almanac

Astronomy

Dec. 07, 2016 Rise Set
Actual Time
Civil Twilight
Nautical Twilight
Astronomical Twilight
Moon
Length of Visible Light
Length of Day
Tomorrow will be .
, % of the Moon is Illuminated

Today's Extremes

State Highs State Lows

Community

WunderPhotos

Upload Photos

1,956,259 photos uploaded!

WunderBlog® & News

Nearby

Air Quality

  Air Quality AQ Index Pollutant
Not available.

Snow Depth

Station Depth Elevation

Earthquake Activity

City Distance Mag. Time & Date
Minimum magnitude displayed is 2.5.

Coastal Water Temperatures

Place Temperature

Stations

Nearby Weather Stations

Station Location Temp. Windchill Dew Point Humidity Wind Precip. Elev Updated Type
                   

Watches & Warnings

Winter Weather Advisory
Issued: 3:02 PM PST Dec. 7, 2016 – National Weather Service

... Winter Weather Advisory in effect from 4 PM Thursday to 8 am PST
Friday...

The National Weather Service in Seattle has issued a Winter Weather
Advisory for snow... which is in effect from 4 PM Thursday to 8 am
PST Friday. The Winter Storm Watch is no longer in effect.

* Timing... a weather system will move from south to north through
western Washington Thursday night. With cold air in place snow
will fall and snow accumulation of 1 to 3 inches is expected
across most of The Lowlands. The snow should change to rain
before daybreak Friday.

* Main impact... travel will affected as roadway surface
conditions may become slippery.

Precautionary/preparedness actions...

People planning on travel late Thursday afternoon and night should
expect winter driving conditons.